createdAt,value
2022-08-04T00:00:47.142Z,54.65
2022-08-04T00:03:17.647Z,54.36
2022-08-04T00:05:56.062Z,54.77
2022-08-04T00:08:30.564Z,54.38
2022-08-04T00:11:00.499Z,54.67
2022-08-04T00:13:32.162Z,54.39
2022-08-04T00:16:08.142Z,54.47
2022-08-04T00:18:37.501Z,54.73
2022-08-04T00:21:07.337Z,54.93
2022-08-04T00:24:10.536Z,54.51
2022-08-04T00:26:27.360Z,54.85
2022-08-04T00:28:56.811Z,55.07
2022-08-04T00:31:54.186Z,55.02
2022-08-04T00:34:13.654Z,55.14
2022-08-04T00:36:41.847Z,54.93
2022-08-04T00:39:10.264Z,55.02
2022-08-04T00:41:56.784Z,54.99
2022-08-04T00:44:41.535Z,55.02
2022-08-04T00:47:18.037Z,55.21
2022-08-04T00:49:57.185Z,55.01
2022-08-04T00:52:38.320Z,55.30
2022-08-04T00:55:14.179Z,55.16
2022-08-04T00:57:55.203Z,55.52
2022-08-04T01:00:24.863Z,55.22
2022-08-04T01:03:01.431Z,55.34
2022-08-04T01:05:38.434Z,55.26
2022-08-04T01:08:13.333Z,55.51
2022-08-04T01:10:49.702Z,55.83
2022-08-04T01:13:40.159Z,55.83
2022-08-04T01:16:11.378Z,56.00
2022-08-04T01:18:47.001Z,56.18
2022-08-04T01:21:32.702Z,56.28
2022-08-04T01:24:21.034Z,56.31
2022-08-04T01:26:58.393Z,56.55
2022-08-04T01:29:47.134Z,56.44
2022-08-04T01:32:25.859Z,56.76
2022-08-04T01:34:57.385Z,56.36
2022-08-04T01:37:30.790Z,56.32
2022-08-04T01:40:02.130Z,56.37
2022-08-04T01:42:32.602Z,56.35
2022-08-04T01:45:05.179Z,56.31
2022-08-04T01:47:35.445Z,56.25
2022-08-04T01:50:07.077Z,56.40
2022-08-04T01:52:35.924Z,56.35
2022-08-04T01:55:05.385Z,56.24
2022-08-04T01:57:38.428Z,55.82
2022-08-04T02:00:10.369Z,56.33
2022-08-04T02:02:39.735Z,55.92
2022-08-04T02:05:08.327Z,55.93
2022-08-04T02:07:51.971Z,56.44
2022-08-04T02:10:25.732Z,56.18
2022-08-04T02:13:02.880Z,56.19
2022-08-04T02:15:37.308Z,56.18
2022-08-04T02:18:11.309Z,56.20
2022-08-04T02:20:40.398Z,56.08
2022-08-04T02:23:11.486Z,56.06
2022-08-04T02:25:41.321Z,56.31
2022-08-04T02:28:17.022Z,56.41
2022-08-04T02:30:51.684Z,56.56
2022-08-04T02:33:24.209Z,56.26
2022-08-04T02:35:54.637Z,56.53
2022-08-04T02:38:26.066Z,56.60
2022-08-04T02:40:56.418Z,56.29
2022-08-04T02:43:50.848Z,56.71
2022-08-04T02:46:17.698Z,56.63
2022-08-04T02:48:49.894Z,56.37
2022-08-04T02:51:20.050Z,56.24
2022-08-04T02:53:51.339Z,56.54
2022-08-04T02:56:20.635Z,56.56
2022-08-04T02:58:52.704Z,56.70
2022-08-04T03:01:22.851Z,56.70
2022-08-04T03:03:54.842Z,56.49
2022-08-04T03:07:00.564Z,56.37
2022-08-04T03:10:04.246Z,56.76
2022-08-04T03:12:59.119Z,56.61
2022-08-04T03:15:46.454Z,57.85
2022-08-04T03:19:06.839Z,58.35
2022-08-04T03:22:02.900Z,58.52
2022-08-04T03:25:00.255Z,59.24
2022-08-04T03:27:48.586Z,58.51
2022-08-04T03:30:16.907Z,58.49
2022-08-04T03:33:30.362Z,58.23
2022-08-04T03:36:39.952Z,57.95
2022-08-04T03:39:55.590Z,57.65
2022-08-04T03:42:59.226Z,57.68
2022-08-04T03:46:03.946Z,57.51
2022-08-04T03:49:04.566Z,57.59
2022-08-04T03:51:54.686Z,57.44
2022-08-04T03:55:07.649Z,57.40
2022-08-04T03:58:07.982Z,57.63
2022-08-04T04:00:41.126Z,57.29
2022-08-04T04:03:29.885Z,57.05
2022-08-04T04:06:34.082Z,57.34
2022-08-04T04:09:56.652Z,57.26
2022-08-04T04:12:48.578Z,57.14
2022-08-04T04:15:22.017Z,57.30
2022-08-04T04:18:28.204Z,57.27
2022-08-04T04:21:07.264Z,57.17
2022-08-04T04:24:02.891Z,57.39
2022-08-04T04:26:46.914Z,57.20
2022-08-04T04:29:30.590Z,57.16
2022-08-04T04:32:04.940Z,57.12
2022-08-04T04:34:45.863Z,57.01
2022-08-04T04:37:20.946Z,56.93
2022-08-04T04:40:09.354Z,56.68
2022-08-04T04:42:44.018Z,56.51
2022-08-04T04:45:26.551Z,56.75
2022-08-04T04:48:08.408Z,56.84
2022-08-04T04:50:46.342Z,56.91
2022-08-04T04:53:19.871Z,56.92
2022-08-04T04:55:52.196Z,57.05
2022-08-04T04:58:20.317Z,57.28
2022-08-04T05:00:59.039Z,57.33
2022-08-04T05:03:38.764Z,57.28
2022-08-04T05:06:15.231Z,57.53
2022-08-04T05:08:54.937Z,57.56
2022-08-04T05:11:55.065Z,57.36
2022-08-04T05:14:34.834Z,57.16
2022-08-04T05:17:13.979Z,57.50
2022-08-04T05:19:48.309Z,57.60
2022-08-04T05:22:20.143Z,57.52
2022-08-04T05:24:48.239Z,57.37
2022-08-04T05:27:18.256Z,57.25
2022-08-04T05:29:50.369Z,57.32
2022-08-04T05:32:18.516Z,57.33
2022-08-04T05:34:53.223Z,57.08
2022-08-04T05:37:22.937Z,56.92
2022-08-04T05:39:55.383Z,57.33
2022-08-04T05:42:23.540Z,57.03
2022-08-04T05:44:51.633Z,57.01
2022-08-04T05:47:21.567Z,56.98
2022-08-04T05:50:01.129Z,57.28
2022-08-04T05:52:32.076Z,57.23
2022-08-04T05:55:00.432Z,57.54
2022-08-04T05:57:31.555Z,57.27
2022-08-04T06:00:07.058Z,57.49
2022-08-04T06:02:48.482Z,57.49
2022-08-04T06:05:17.798Z,57.51
2022-08-04T06:08:12.420Z,57.44
2022-08-04T06:10:35.597Z,57.43
2022-08-04T06:13:07.001Z,57.53
2022-08-04T06:15:35.095Z,57.36
2022-08-04T06:19:57.717Z,57.04
2022-08-04T06:20:53.165Z,57.02
2022-08-04T06:23:22.636Z,57.22
2022-08-04T06:25:52.253Z,57.16
2022-08-04T06:28:20.414Z,56.65
2022-08-04T06:30:50.688Z,56.95
2022-08-04T06:33:27.525Z,56.93
2022-08-04T06:35:55.964Z,56.85
2022-08-04T06:38:26.126Z,56.65
2022-08-04T06:40:54.584Z,56.43
2022-08-04T06:43:22.653Z,55.94
2022-08-04T06:45:52.647Z,55.52
2022-08-04T06:48:21.159Z,55.48
2022-08-04T06:51:26.910Z,55.31
2022-08-04T06:53:40.339Z,55.21
2022-08-04T06:56:08.649Z,55.08
2022-08-04T06:58:39.137Z,54.54
2022-08-04T07:01:07.292Z,54.47
2022-08-04T07:03:35.387Z,53.90
2022-08-04T07:06:06.093Z,53.91
2022-08-04T07:08:44.257Z,53.17
2022-08-04T07:11:12.700Z,53.29
2022-08-04T07:13:45.080Z,53.11
2022-08-04T07:16:15.083Z,53.13
2022-08-04T07:18:43.186Z,52.86
2022-08-04T07:21:11.345Z,52.35
2022-08-04T07:23:39.425Z,52.37
2022-08-04T07:26:12.928Z,52.09
2022-08-04T07:28:42.166Z,51.99
2022-08-04T07:31:34.407Z,51.68
2022-08-04T07:34:16.691Z,51.37
2022-08-04T07:36:50.226Z,51.35
2022-08-04T07:39:27.974Z,51.30
2022-08-04T07:42:01.346Z,51.18
2022-08-04T07:44:30.586Z,50.49
2022-08-04T07:47:00.976Z,50.09
2022-08-04T07:49:54.870Z,49.58
2022-08-04T07:52:17.623Z,49.22
2022-08-04T07:54:45.827Z,48.86
2022-08-04T07:57:19.406Z,47.95
2022-08-04T08:00:05.497Z,47.99
2022-08-04T08:02:40.069Z,48.35
2022-08-04T08:05:09.540Z,48.27
2022-08-04T08:07:37.673Z,47.78
2022-08-04T08:10:19.483Z,47.67
2022-08-04T08:12:51.595Z,48.00
2022-08-04T08:15:22.065Z,48.32
2022-08-04T08:17:57.906Z,47.82
2022-08-04T08:20:30.459Z,48.17
2022-08-04T08:23:00.120Z,48.57
2022-08-04T08:25:30.535Z,47.95
2022-08-04T08:28:00.384Z,48.12
2022-08-04T08:30:31.658Z,48.29
2022-08-04T08:33:05.753Z,48.25
2022-08-04T08:35:39.742Z,48.05
2022-08-04T08:38:19.464Z,46.96
2022-08-04T08:40:52.483Z,47.16
2022-08-04T08:44:06.394Z,47.18
2022-08-04T08:46:48.960Z,47.33
2022-08-04T08:50:02.189Z,47.30
2022-08-04T08:53:00.617Z,46.98
2022-08-04T08:55:43.201Z,47.25
2022-08-04T08:58:34.576Z,47.03
2022-08-04T09:01:08.700Z,46.82
2022-08-04T09:03:50.777Z,46.25
2022-08-04T09:06:47.623Z,46.22
2022-08-04T09:09:56.835Z,46.05
2022-08-04T09:12:29.116Z,45.51
2022-08-04T09:15:08.210Z,45.13
2022-08-04T09:17:42.461Z,45.38
2022-08-04T09:20:16.090Z,45.14
2022-08-04T09:22:46.755Z,45.48
2022-08-04T09:25:18.627Z,45.48
2022-08-04T09:27:48.790Z,45.49
2022-08-04T09:30:19.262Z,45.54
2022-08-04T09:32:56.932Z,44.70
2022-08-04T09:35:32.224Z,44.90
2022-08-04T09:38:12.319Z,44.91
2022-08-04T09:40:53.864Z,44.64
2022-08-04T09:43:59.235Z,44.15
2022-08-04T09:46:29.945Z,44.09
2022-08-04T09:49:01.422Z,43.99
2022-08-04T09:51:59.062Z,44.17
2022-08-04T09:54:32.875Z,43.51
2022-08-04T09:57:05.990Z,43.72
2022-08-04T09:59:37.597Z,43.13
2022-08-04T10:02:09.684Z,42.74
2022-08-04T10:04:40.463Z,43.42
2022-08-04T10:07:25.946Z,42.82
2022-08-04T10:10:10.002Z,42.35
2022-08-04T10:12:45.692Z,42.03
2022-08-04T10:15:16.580Z,41.41
2022-08-04T10:18:11.547Z,41.92
2022-08-04T10:20:59.117Z,41.58
2022-08-04T10:23:55.313Z,41.58
2022-08-04T10:26:32.890Z,41.84
2022-08-04T10:29:03.753Z,41.35
2022-08-04T10:31:37.495Z,41.78
2022-08-04T10:34:13.016Z,42.02
2022-08-04T10:36:58.742Z,41.83
2022-08-04T10:39:43.232Z,41.15
2022-08-04T10:42:19.225Z,41.21
2022-08-04T10:44:57.560Z,41.12
2022-08-04T10:47:28.257Z,40.08
2022-08-04T10:50:01.631Z,40.46
2022-08-04T10:52:34.946Z,40.18
2022-08-04T10:55:08.493Z,39.91
2022-08-04T10:57:39.556Z,40.00
2022-08-04T11:00:09.252Z,39.46
2022-08-04T11:02:44.299Z,39.69
2022-08-04T11:05:18.099Z,39.71
2022-08-04T11:07:50.181Z,39.30
2022-08-04T11:10:21.021Z,39.26
2022-08-04T11:12:53.541Z,39.70
2022-08-04T11:15:23.734Z,39.37
2022-08-04T11:17:55.284Z,39.33
2022-08-04T11:20:36.296Z,39.43
2022-08-04T11:23:09.379Z,39.07
2022-08-04T11:25:47.155Z,38.98
2022-08-04T11:28:22.005Z,39.13
2022-08-04T11:30:54.244Z,38.26
2022-08-04T11:33:25.295Z,38.21
2022-08-04T11:35:57.286Z,37.76
2022-08-04T11:38:32.407Z,37.57
2022-08-04T11:41:06.847Z,36.73
2022-08-04T11:43:56.508Z,37.35
2022-08-04T11:46:31.229Z,37.61
2022-08-04T11:49:03.180Z,36.96
2022-08-04T11:51:31.384Z,36.97
2022-08-04T11:54:00.924Z,37.25
2022-08-04T11:56:37.207Z,37.29
2022-08-04T11:59:07.595Z,36.67
2022-08-04T12:01:40.107Z,36.76
2022-08-04T12:04:14.044Z,36.04
2022-08-04T12:06:56.755Z,36.43
2022-08-04T12:09:35.849Z,36.09
2022-08-04T12:12:09.068Z,35.81
2022-08-04T12:14:46.966Z,35.73
2022-08-04T12:17:17.006Z,36.18
2022-08-04T12:20:04.250Z,35.72
2022-08-04T12:22:38.757Z,35.21
2022-08-04T12:25:14.469Z,35.31
2022-08-04T12:27:46.443Z,35.01
2022-08-04T12:30:59.444Z,35.61
2022-08-04T12:33:05.481Z,35.62
2022-08-04T12:35:36.666Z,35.07
2022-08-04T12:38:08.339Z,35.49
2022-08-04T12:40:40.815Z,36.18
2022-08-04T12:43:15.047Z,35.60
2022-08-04T12:45:44.910Z,36.26
2022-08-04T12:48:21.026Z,35.28
2022-08-04T12:50:50.328Z,35.66
2022-08-04T12:53:31.365Z,36.05
2022-08-04T12:56:02.594Z,36.40
2022-08-04T12:58:43.205Z,36.17
2022-08-04T13:02:06.952Z,36.61
2022-08-04T13:04:04.600Z,36.00
2022-08-04T13:06:34.364Z,35.17
2022-08-04T13:09:07.203Z,35.47
2022-08-04T13:11:41.851Z,35.66
2022-08-04T13:14:26.687Z,36.34
2022-08-04T13:16:58.470Z,35.97
2022-08-04T13:19:26.851Z,35.25
2022-08-04T13:22:02.674Z,35.31
2022-08-04T13:24:33.648Z,35.09
2022-08-04T13:27:09.373Z,34.88
2022-08-04T13:30:00.153Z,34.58
2022-08-04T13:32:28.856Z,35.91
2022-08-04T13:34:57.558Z,35.51
2022-08-04T13:37:27.789Z,34.55
2022-08-04T13:39:56.571Z,34.41
2022-08-04T13:42:27.235Z,33.47
2022-08-04T13:44:58.143Z,33.69
2022-08-04T13:47:31.811Z,34.76
2022-08-04T13:50:12.223Z,33.63
2022-08-04T13:52:41.179Z,33.65
2022-08-04T13:55:19.452Z,33.28
2022-08-04T13:57:54.706Z,34.02
2022-08-04T14:00:29.793Z,32.94
2022-08-04T14:03:23.678Z,32.99
2022-08-04T14:06:14.369Z,32.75
2022-08-04T14:08:52.762Z,32.83
2022-08-04T14:12:07.551Z,32.89
2022-08-04T14:14:22.678Z,33.37
2022-08-04T14:17:06.809Z,33.12
2022-08-04T14:19:56.599Z,33.17
2022-08-04T14:22:36.646Z,33.35
2022-08-04T14:25:09.384Z,33.49
2022-08-04T14:27:47.178Z,33.78
2022-08-04T14:30:25.211Z,33.41
2022-08-04T14:34:00.985Z,33.21
2022-08-04T14:35:57.707Z,32.47
2022-08-04T14:38:25.921Z,32.59
2022-08-04T14:40:54.693Z,32.12
2022-08-04T14:43:22.926Z,32.11
2022-08-04T14:45:55.531Z,32.19
2022-08-04T14:48:25.384Z,32.30
2022-08-04T14:50:54.832Z,32.25
2022-08-04T14:53:26.429Z,32.33
2022-08-04T14:55:56.891Z,31.90
2022-08-04T14:58:33.799Z,31.91
2022-08-04T15:01:10.089Z,31.75
2022-08-04T15:03:49.618Z,30.88
2022-08-04T15:06:22.601Z,30.60
2022-08-04T15:08:52.266Z,30.93
2022-08-04T15:11:23.226Z,30.62
2022-08-04T15:13:52.317Z,30.18
2022-08-04T15:16:21.817Z,30.16
2022-08-04T15:18:50.023Z,30.66
2022-08-04T15:21:18.507Z,29.96
2022-08-04T15:23:47.344Z,29.92
2022-08-04T15:26:18.568Z,30.19
2022-08-04T15:28:50.145Z,29.98
2022-08-04T15:32:07.375Z,29.59
2022-08-04T15:34:10.003Z,28.94
2022-08-04T15:36:43.923Z,28.48
2022-08-04T15:39:32.054Z,28.04
2022-08-04T15:42:13.978Z,28.17
2022-08-04T15:45:18.847Z,28.07
2022-08-04T15:48:15.984Z,28.32
2022-08-04T15:51:08.383Z,28.48
2022-08-04T15:54:28.013Z,28.31
2022-08-04T15:57:02.298Z,27.98
2022-08-04T16:00:03.165Z,28.07
2022-08-04T16:02:43.082Z,27.72
2022-08-04T16:05:33.513Z,27.31
2022-08-04T16:08:12.072Z,27.35
2022-08-04T16:10:41.705Z,26.92
2022-08-04T16:13:10.495Z,26.61
2022-08-04T16:15:39.702Z,27.26
2022-08-04T16:18:14.194Z,27.08
2022-08-04T16:20:54.949Z,27.25
2022-08-04T16:23:54.092Z,26.17
2022-08-04T16:26:56.100Z,26.37
2022-08-04T16:29:42.777Z,26.48
2022-08-04T16:32:15.523Z,26.52
2022-08-04T16:34:49.044Z,26.67
2022-08-04T16:37:24.472Z,26.88
2022-08-04T16:40:18.656Z,26.26
2022-08-04T16:42:47.158Z,25.93
2022-08-04T16:45:16.091Z,25.92
2022-08-04T16:48:02.441Z,26.74
2022-08-04T16:50:30.687Z,26.21
2022-08-04T16:52:58.946Z,26.13
2022-08-04T16:55:29.278Z,25.45
2022-08-04T16:57:58.876Z,24.88
2022-08-04T17:00:31.455Z,24.62
2022-08-04T17:02:59.707Z,24.79
2022-08-04T17:05:39.757Z,24.61
2022-08-04T17:10:59.350Z,24.56
2022-08-04T17:14:03.485Z,24.55
2022-08-04T17:16:20.962Z,24.00
2022-08-04T17:18:49.825Z,24.27
2022-08-04T17:21:20.520Z,24.51
2022-08-04T17:24:12.716Z,25.39
2022-08-04T17:26:41.408Z,25.70
2022-08-04T17:29:10.048Z,25.78
2022-08-04T17:31:39.911Z,24.66
2022-08-04T17:34:15.593Z,24.68
2022-08-04T17:36:44.201Z,25.08
2022-08-04T17:39:16.747Z,24.90
2022-08-04T17:41:49.139Z,25.37
2022-08-04T17:44:18.005Z,25.47
2022-08-04T17:46:48.109Z,25.51
2022-08-04T17:49:23.166Z,26.04
2022-08-04T17:52:01.912Z,25.30
2022-08-04T17:54:36.800Z,25.06
2022-08-04T17:57:20.071Z,25.97
2022-08-04T17:59:55.995Z,25.96
2022-08-04T18:02:32.534Z,25.77
2022-08-04T18:05:07.680Z,26.34
2022-08-04T18:08:35.624Z,26.04
2022-08-04T18:13:42.818Z,26.36
2022-08-04T18:16:22.797Z,26.79
2022-08-04T18:19:08.908Z,27.45
2022-08-04T18:21:46.834Z,27.70
2022-08-04T18:24:34.222Z,27.81
2022-08-04T18:27:16.113Z,27.60
2022-08-04T18:30:15.390Z,27.74
2022-08-04T18:32:34.375Z,28.27
2022-08-04T18:35:03.497Z,28.71
2022-08-04T18:38:06.180Z,29.18
2022-08-04T18:40:30.103Z,29.33
2022-08-04T18:43:04.443Z,29.78
2022-08-04T18:45:35.182Z,29.87
2022-08-04T18:48:04.302Z,30.15
2022-08-04T18:51:11.323Z,30.70
2022-08-04T18:53:35.642Z,30.90
2022-08-04T18:56:06.325Z,31.21
2022-08-04T18:58:48.516Z,31.50
2022-08-04T19:01:18.027Z,31.58
2022-08-04T19:03:49.382Z,31.81
2022-08-04T19:06:25.960Z,32.09
2022-08-04T19:08:55.636Z,32.35
2022-08-04T19:11:54.226Z,32.26
2022-08-04T19:14:13.194Z,32.33
2022-08-04T19:16:46.100Z,32.84
2022-08-04T19:19:15.637Z,32.64
2022-08-04T19:21:59.519Z,32.90
2022-08-04T19:24:34.202Z,33.21
2022-08-04T19:27:07.315Z,33.31
2022-08-04T19:29:41.324Z,33.81
2022-08-04T19:32:16.324Z,33.81
2022-08-04T19:34:45.759Z,34.12
2022-08-04T19:37:55.968Z,34.44
2022-08-04T19:42:58.840Z,34.52
2022-08-04T19:45:41.709Z,34.87
2022-08-04T19:51:03.146Z,35.37
2022-08-04T19:53:36.929Z,34.92
2022-08-04T19:56:05.884Z,35.41
2022-08-04T19:58:33.955Z,35.22
2022-08-04T20:01:02.237Z,35.93
2022-08-04T20:06:19.858Z,36.26
2022-08-04T20:08:48.891Z,36.49
2022-08-04T20:11:18.893Z,36.56
2022-08-04T20:13:54.361Z,36.49
2022-08-04T20:16:29.266Z,36.54
2022-08-04T20:19:03.796Z,37.24
2022-08-04T20:21:53.648Z,37.31
2022-08-04T20:24:37.761Z,37.29
2022-08-04T20:27:15.620Z,37.31
2022-08-04T20:29:48.461Z,37.53
2022-08-04T20:32:20.013Z,37.93
2022-08-04T20:34:51.557Z,37.77
2022-08-04T20:37:23.489Z,38.67
2022-08-04T20:39:55.319Z,38.80
2022-08-04T20:42:27.847Z,38.93
2022-08-04T20:45:02.559Z,38.83
2022-08-04T20:47:35.613Z,38.63
2022-08-04T20:50:09.092Z,38.63
2022-08-04T20:52:38.055Z,38.73
2022-08-04T20:55:07.365Z,38.91
2022-08-04T20:57:49.675Z,38.94
2022-08-04T21:00:29.976Z,39.21
2022-08-04T21:02:59.125Z,39.37
2022-08-04T21:05:28.713Z,39.40
2022-08-04T21:07:59.685Z,39.52
2022-08-04T21:10:27.916Z,39.48
2022-08-04T21:12:56.103Z,39.86
2022-08-04T21:15:26.380Z,39.75
2022-08-04T21:18:14.574Z,39.58
2022-08-04T21:20:48.322Z,39.91
2022-08-04T21:23:16.659Z,39.72
2022-08-04T21:25:45.630Z,39.77
2022-08-04T21:28:20.380Z,39.91
2022-08-04T21:30:54.298Z,39.59
2022-08-04T21:33:24.407Z,39.69
2022-08-04T21:36:13.971Z,39.75
2022-08-04T21:38:51.226Z,40.19
2022-08-04T21:41:26.942Z,40.37
2022-08-04T21:43:56.239Z,40.42
2022-08-04T21:46:24.442Z,40.37
2022-08-04T21:48:52.710Z,40.39
2022-08-04T21:52:00.123Z,40.72
2022-08-04T21:54:15.160Z,40.96
2022-08-04T21:56:50.775Z,41.34
2022-08-04T21:59:23.630Z,41.54
2022-08-04T22:02:00.242Z,41.61
2022-08-04T22:04:29.167Z,41.74
2022-08-04T22:07:02.714Z,41.88
2022-08-04T22:17:51.851Z,42.99
2022-08-04T22:20:27.327Z,43.02
2022-08-04T22:23:06.113Z,43.22
2022-08-04T22:25:44.961Z,42.96
2022-08-04T22:28:25.421Z,43.16
2022-08-04T22:30:56.538Z,43.09
2022-08-04T22:33:55.160Z,43.25
2022-08-04T22:36:13.386Z,43.17
2022-08-04T22:38:49.743Z,43.15
2022-08-04T22:41:21.713Z,43.08
2022-08-04T22:44:02.258Z,43.11
2022-08-04T22:46:31.200Z,43.43
2022-08-04T22:48:59.395Z,43.23
2022-08-04T22:51:27.796Z,43.17
2022-08-04T22:54:00.322Z,43.03
2022-08-04T22:56:37.533Z,43.17
2022-08-04T22:59:10.993Z,43.13
2022-08-04T23:02:00.941Z,43.42
2022-08-04T23:04:28.070Z,43.37
2022-08-04T23:06:56.115Z,43.65
2022-08-04T23:09:49.202Z,43.49
2022-08-04T23:12:29.162Z,43.54
2022-08-04T23:14:58.205Z,43.57
2022-08-04T23:17:27.810Z,43.69
2022-08-04T23:19:58.640Z,43.82
2022-08-04T23:22:41.133Z,44.01
2022-08-04T23:25:16.144Z,43.93
2022-08-04T23:27:51.133Z,44.10
2022-08-04T23:30:21.567Z,44.23
2022-08-04T23:32:50.159Z,44.01
2022-08-04T23:35:19.272Z,44.22
2022-08-04T23:37:56.999Z,44.25
2022-08-04T23:40:32.451Z,43.89
2022-08-04T23:43:12.181Z,44.33
2022-08-04T23:46:06.469Z,44.16
2022-08-04T23:48:34.500Z,44.22
2022-08-04T23:51:13.706Z,44.18
2022-08-04T23:54:03.555Z,44.40
2022-08-04T23:56:33.125Z,44.77
2022-08-04T23:59:04.115Z,44.76
